createdAt,value
2022-09-05T00:02:56.894Z,98929.72
2022-09-05T00:06:04.944Z,98931.75
2022-09-05T00:09:12.870Z,98936.75
2022-09-05T00:12:14.753Z,98930.97
2022-09-05T00:15:23.568Z,98940.25
2022-09-05T00:24:18.630Z,98930.78
2022-09-05T00:24:24.864Z,98931.88
2022-09-05T00:25:55.514Z,98928.09
2022-09-05T00:29:03.411Z,98935.44
2022-09-05T00:32:12.619Z,98936.63
2022-09-05T00:35:25.971Z,98933.19
2022-09-05T00:38:36.620Z,98933.44
2022-09-05T00:41:41.099Z,98939.16
2022-09-05T00:44:50.506Z,98936.06
2022-09-05T00:47:57.434Z,98929.91
2022-09-05T00:51:13.226Z,98938.88
2022-09-05T00:54:41.073Z,98937.47
2022-09-05T00:57:52.975Z,98940.41
2022-09-05T01:00:55.615Z,98938.69
2022-09-05T01:04:05.928Z,98935.13
2022-09-05T01:07:13.367Z,98940.72
2022-09-05T01:10:23.624Z,98944.75
2022-09-05T01:13:35.960Z,98941.41
2022-09-05T01:16:45.138Z,98938.06
2022-09-05T01:20:19.386Z,98940.75
2022-09-05T01:23:31.043Z,98938.16
2022-09-05T01:26:50.222Z,98942.81
2022-09-05T01:29:57.036Z,98941.22
2022-09-05T01:33:06.118Z,98943.91
2022-09-05T01:36:32.171Z,98946.06
2022-09-05T01:40:15.475Z,98933.78
2022-09-05T01:43:12.301Z,98941.13
2022-09-05T01:46:22.721Z,98930.59
2022-09-05T01:49:35.797Z,98934.16
2022-09-05T01:52:57.319Z,98928.25
2022-09-05T01:56:17.396Z,98927.50
2022-09-05T01:59:23.303Z,98928.38
2022-09-05T02:02:50.176Z,98932.22
2022-09-05T02:06:22.173Z,98927.69
2022-09-05T02:09:36.337Z,98926.75
2022-09-05T02:12:42.154Z,98925.13
2022-09-05T02:15:51.175Z,98929.88
2022-09-05T02:19:06.892Z,98925.56
2022-09-05T02:22:10.813Z,98932.91
2022-09-05T02:26:00.179Z,98932.03
2022-09-05T02:28:42.731Z,98933.00
2022-09-05T02:31:46.663Z,98934.31
2022-09-05T02:34:54.738Z,98925.47
2022-09-05T02:39:19.963Z,98927.31
2022-09-05T02:45:07.732Z,98918.44
2022-09-05T02:45:13.704Z,98924.69
2022-09-05T02:48:22.732Z,98921.91
2022-09-05T02:57:25.700Z,98923.41
2022-09-05T02:57:37.437Z,98914.44
2022-09-05T02:58:25.246Z,98917.56
2022-09-05T03:01:35.934Z,98916.81
2022-09-05T03:04:42.164Z,98912.38
2022-09-05T03:07:53.171Z,98918.66
2022-09-05T03:11:12.184Z,98918.00
2022-09-05T03:14:32.500Z,98915.63
2022-09-05T03:17:47.154Z,98919.50
2022-09-05T03:21:09.198Z,98912.63
2022-09-05T03:24:30.259Z,98906.25
2022-09-05T03:27:46.688Z,98909.91
2022-09-05T03:30:58.529Z,98912.28
2022-09-05T03:34:13.726Z,98902.47
2022-09-05T03:37:34.083Z,98909.81
2022-09-05T03:40:47.146Z,98906.31
2022-09-05T03:44:09.920Z,98913.66
2022-09-05T03:47:23.029Z,98916.59
2022-09-05T03:57:13.710Z,98921.22
2022-09-05T03:57:19.855Z,98917.78
2022-09-05T03:57:41.445Z,98920.47
2022-09-05T04:00:47.242Z,98928.56
2022-09-05T04:08:11.496Z,98925.00
2022-09-05T04:08:16.719Z,98927.69
2022-09-05T04:10:50.758Z,98927.78
2022-09-05T04:13:56.006Z,98924.44
2022-09-05T04:17:01.022Z,98923.56
2022-09-05T04:20:08.533Z,98936.94
2022-09-05T04:23:15.982Z,98931.66
2022-09-05T04:26:25.505Z,98931.56
2022-09-05T04:29:35.841Z,98924.31
2022-09-05T04:32:45.332Z,98933.75
2022-09-05T04:35:52.654Z,98936.22
2022-09-05T04:39:09.591Z,98942.16
2022-09-05T04:42:18.736Z,98937.41
2022-09-05T04:45:24.567Z,98946.16
2022-09-05T04:48:28.854Z,98945.19
2022-09-05T04:51:45.203Z,98949.59
2022-09-05T04:55:07.281Z,98961.19
2022-09-05T04:58:13.685Z,98954.69
2022-09-05T05:05:58.863Z,98951.03
2022-09-05T05:06:19.978Z,98956.31
2022-09-05T05:08:03.776Z,98961.72
2022-09-05T05:15:00.129Z,98961.72
2022-09-05T05:18:07.468Z,98959.88
2022-09-05T05:18:49.092Z,98972.38
2022-09-05T05:21:28.337Z,98972.28
2022-09-05T05:24:32.436Z,98967.84
2022-09-05T05:27:41.129Z,98973.25
2022-09-05T05:30:43.463Z,98973.06
2022-09-05T05:33:47.282Z,98979.22
2022-09-05T05:36:50.991Z,98970.88
2022-09-05T05:40:00.618Z,98976.19
2022-09-05T05:43:17.420Z,98978.56
2022-09-05T05:46:30.484Z,98973.94
2022-09-05T05:49:40.195Z,98982.56
2022-09-05T05:52:59.716Z,98985.81
2022-09-05T05:56:19.412Z,98977.38
2022-09-05T05:59:45.972Z,98981.59
2022-09-05T06:03:26.878Z,98981.03
2022-09-05T06:06:37.125Z,98992.09
2022-09-05T06:14:49.817Z,98991.78
2022-09-05T06:14:59.827Z,98988.75
2022-09-05T06:17:28.335Z,98988.41
2022-09-05T06:22:08.690Z,98986.34
2022-09-05T06:24:29.015Z,98986.13
2022-09-05T06:28:17.954Z,98991.31
2022-09-05T06:31:31.396Z,98996.59
2022-09-05T06:34:58.102Z,98992.06
2022-09-05T06:38:08.408Z,98997.25
2022-09-05T06:41:22.188Z,99004.28
2022-09-05T06:44:36.233Z,99000.47
2022-09-05T06:47:40.716Z,99000.03
2022-09-05T06:51:07.116Z,99001.97
2022-09-05T06:54:22.590Z,99000.72
2022-09-05T06:57:51.614Z,99010.53
2022-09-05T07:00:55.370Z,99014.81
2022-09-05T07:05:14.791Z,99010.00
2022-09-05T07:07:36.028Z,99008.19
2022-09-05T07:10:39.771Z,99014.81
2022-09-05T07:13:48.022Z,99019.88
2022-09-05T07:16:59.113Z,99018.38
2022-09-05T07:20:01.973Z,99022.31
2022-09-05T07:23:38.319Z,99017.13
2022-09-05T07:26:52.169Z,99019.06
2022-09-05T07:30:00.881Z,99020.81
2022-09-05T07:33:04.739Z,99025.75
2022-09-05T07:36:09.251Z,99029.84
2022-09-05T07:39:28.257Z,99024.13
2022-09-05T07:42:32.808Z,99021.09
2022-09-05T07:45:37.110Z,99022.00
2022-09-05T07:48:45.371Z,99025.94
2022-09-05T07:56:51.064Z,99027.84
2022-09-05T07:57:17.462Z,99025.38
2022-09-05T07:58:50.537Z,99025.88
2022-09-05T08:01:53.969Z,99037.94
2022-09-05T08:05:01.992Z,99035.78
2022-09-05T08:08:05.555Z,99031.47
2022-09-05T08:11:25.669Z,99034.81
2022-09-05T08:14:44.934Z,99029.69
2022-09-05T08:17:53.056Z,99029.22
2022-09-05T08:20:58.938Z,99035.13
2022-09-05T08:24:13.224Z,99027.25
2022-09-05T08:27:18.617Z,99024.94
2022-09-05T08:30:25.974Z,99032.09
2022-09-05T08:33:32.765Z,99032.97
2022-09-05T08:36:38.210Z,99034.44
2022-09-05T08:39:41.385Z,99036.88
2022-09-05T08:43:39.363Z,99033.69
2022-09-05T08:46:46.221Z,99025.91
2022-09-05T08:49:44.053Z,99019.78
2022-09-05T08:52:58.366Z,99010.09
2022-09-05T08:56:02.004Z,99018.19
2022-09-05T08:59:31.509Z,99015.25
2022-09-05T09:02:52.471Z,99010.09
2022-09-05T09:06:16.130Z,99004.16
2022-09-05T09:09:24.761Z,99001.00
2022-09-05T09:12:49.214Z,99005.31
2022-09-05T09:15:59.370Z,98991.81
2022-09-05T09:19:09.604Z,99003.63
2022-09-05T09:22:18.206Z,99004.22
2022-09-05T09:25:26.401Z,98999.09
2022-09-05T09:28:49.424Z,99003.16
2022-09-05T09:32:04.269Z,98995.75
2022-09-05T09:35:09.941Z,99003.13
2022-09-05T09:38:23.894Z,98992.28
2022-09-05T09:41:34.551Z,98997.16
2022-09-05T09:44:57.084Z,98985.38
2022-09-05T09:48:19.919Z,98978.28
2022-09-05T09:51:31.499Z,98988.94
2022-09-05T09:54:50.960Z,98980.56
2022-09-05T09:58:07.517Z,98990.16
2022-09-05T10:01:20.298Z,98983.25
2022-09-05T10:10:36.454Z,98981.50
2022-09-05T10:10:47.947Z,98982.06
2022-09-05T10:11:57.295Z,98968.75
2022-09-05T10:15:30.188Z,98971.44
2022-09-05T10:18:36.260Z,98967.88
2022-09-05T10:25:27.924Z,98960.28
2022-09-05T10:28:39.546Z,98954.81
2022-09-05T10:35:09.625Z,98965.34
2022-09-05T10:35:27.877Z,98954.84
2022-09-05T10:38:35.979Z,98952.97
2022-09-05T10:41:44.253Z,98950.75
2022-09-05T10:44:48.376Z,98952.91
2022-09-05T10:47:58.587Z,98952.97
2022-09-05T10:51:27.318Z,98949.94
2022-09-05T10:54:39.217Z,98948.81
2022-09-05T10:57:45.673Z,98944.06
2022-09-05T11:02:19.092Z,98935.03
2022-09-05T11:04:30.475Z,98938.53
2022-09-05T11:07:47.821Z,98926.69
2022-09-05T11:10:52.073Z,98929.16
2022-09-05T11:13:55.561Z,98935.84
2022-09-05T11:17:04.740Z,98925.94
2022-09-05T11:20:27.676Z,98925.34
2022-09-05T11:23:40.107Z,98927.50
2022-09-05T11:26:51.375Z,98915.63
2022-09-05T11:30:28.718Z,98921.69
2022-09-05T11:38:25.397Z,98919.00
2022-09-05T11:40:07.145Z,98924.66
2022-09-05T11:41:09.782Z,98919.59
2022-09-05T11:44:35.881Z,98918.38
2022-09-05T11:48:02.455Z,98925.00
2022-09-05T11:51:19.699Z,98913.75
2022-09-05T11:54:50.298Z,98909.63
2022-09-05T11:58:19.948Z,98911.00
2022-09-05T12:01:43.502Z,98899.63
2022-09-05T12:05:49.031Z,98908.19
2022-09-05T12:08:20.886Z,98895.16
2022-09-05T12:11:34.580Z,98898.22
2022-09-05T12:14:49.355Z,98891.78
2022-09-05T12:18:21.925Z,98886.28
2022-09-05T12:21:28.960Z,98881.00
2022-09-05T12:25:24.471Z,98883.91
2022-09-05T12:28:40.443Z,98883.38
2022-09-05T12:32:49.501Z,98880.94
2022-09-05T12:36:12.350Z,98881.50
2022-09-05T12:40:55.454Z,98873.47
2022-09-05T12:42:14.612Z,98880.16
2022-09-05T12:45:19.304Z,98876.03
2022-09-05T12:48:40.581Z,98866.97
2022-09-05T12:51:56.078Z,98862.19
2022-09-05T12:55:02.041Z,98862.19
2022-09-05T13:02:56.638Z,98858.56
2022-09-05T13:03:07.156Z,98862.38
2022-09-05T13:05:12.992Z,98843.34
2022-09-05T13:08:21.139Z,98846.44
2022-09-05T13:15:03.095Z,98836.50
2022-09-05T13:15:21.726Z,98838.56
2022-09-05T13:18:27.657Z,98839.59
2022-09-05T13:21:32.565Z,98841.84
2022-09-05T13:24:37.365Z,98834.44
2022-09-05T13:27:46.577Z,98833.75
2022-09-05T13:34:58.581Z,98834.75
2022-09-05T13:38:00.838Z,98826.91
2022-09-05T13:38:10.677Z,98826.22
2022-09-05T13:41:07.354Z,98815.44
2022-09-05T13:44:31.097Z,98814.19
2022-09-05T13:47:51.094Z,98803.09
2022-09-05T13:50:55.122Z,98805.44
2022-09-05T13:54:07.760Z,98812.13
2022-09-05T13:57:32.643Z,98806.00
2022-09-05T14:00:52.736Z,98804.47
2022-09-05T14:08:17.986Z,98793.34
2022-09-05T14:11:38.169Z,98791.31
2022-09-05T14:18:21.557Z,98798.25
2022-09-05T14:21:25.790Z,98793.59
2022-09-05T14:24:28.435Z,98794.16
2022-09-05T14:27:32.702Z,98788.00
2022-09-05T14:33:19.161Z,98781.63
2022-09-05T14:37:41.132Z,98787.75
2022-09-05T14:38:04.257Z,98779.84
2022-09-05T14:41:28.340Z,98787.94
2022-09-05T14:44:44.199Z,98787.25
2022-09-05T14:47:59.824Z,98777.16
2022-09-05T14:51:24.416Z,98769.34
2022-09-05T15:02:30.001Z,98762.22
2022-09-05T15:02:58.393Z,98755.88
2022-09-05T15:04:44.830Z,98763.94
2022-09-05T15:07:47.907Z,98759.13
2022-09-05T15:12:15.089Z,98752.28
2022-09-05T15:14:13.029Z,98762.56
2022-09-05T15:17:21.874Z,98758.09
2022-09-05T15:20:34.564Z,98756.41
2022-09-05T15:23:36.355Z,98752.63
2022-09-05T15:26:47.006Z,98751.78
2022-09-05T15:29:54.213Z,98754.03
2022-09-05T15:33:11.018Z,98744.94
2022-09-05T15:36:15.032Z,98742.19
2022-09-05T15:39:21.005Z,98735.88
2022-09-05T15:42:30.353Z,98739.13
2022-09-05T15:45:35.386Z,98739.63
2022-09-05T15:48:40.871Z,98741.03
2022-09-05T15:51:46.564Z,98737.44
2022-09-05T15:54:49.936Z,98737.41
2022-09-05T15:57:52.993Z,98741.69
2022-09-05T16:00:57.689Z,98738.41
2022-09-05T16:07:06.839Z,98726.28
2022-09-05T16:10:38.140Z,98732.06
2022-09-05T16:11:19.765Z,98719.41
2022-09-05T16:14:12.799Z,98723.84
2022-09-05T16:23:13.324Z,98721.28
2022-09-05T16:23:26.555Z,98732.53
2022-09-05T16:24:13.782Z,98725.16
2022-09-05T16:27:21.064Z,98722.38
2022-09-05T16:30:28.281Z,98728.84
2022-09-05T16:33:30.906Z,98721.94
2022-09-05T16:36:35.029Z,98733.88
2022-09-05T16:39:42.930Z,98724.09
2022-09-05T16:42:48.338Z,98722.88
2022-09-05T16:45:52.608Z,98726.41
2022-09-05T16:48:57.456Z,98724.34
2022-09-05T16:52:01.918Z,98719.91
2022-09-05T16:55:21.883Z,98713.38
2022-09-05T16:58:32.397Z,98716.88
2022-09-05T17:01:42.584Z,98717.53
2022-09-05T17:05:04.876Z,98719.19
2022-09-05T17:08:11.339Z,98720.69
2022-09-05T17:11:30.075Z,98717.72
2022-09-05T17:14:34.934Z,98716.81
2022-09-05T17:18:19.908Z,98713.16
2022-09-05T17:21:08.341Z,98715.84
2022-09-05T17:27:33.922Z,98712.88
2022-09-05T17:29:47.236Z,98706.47
2022-09-05T17:34:39.064Z,98701.09
2022-09-05T17:37:53.478Z,98702.75
2022-09-05T17:41:19.718Z,98711.72
2022-09-05T17:44:25.276Z,98704.31
2022-09-05T17:47:36.305Z,98705.78
2022-09-05T17:50:51.111Z,98704.69
2022-09-05T17:54:16.214Z,98709.06
2022-09-05T17:57:31.936Z,98710.69
2022-09-05T18:00:49.704Z,98704.69
2022-09-05T18:04:17.128Z,98711.44
2022-09-05T18:07:41.181Z,98703.13
2022-09-05T18:11:14.148Z,98712.78
2022-09-05T18:14:35.223Z,98717.13
2022-09-05T18:17:54.696Z,98718.03
2022-09-05T18:21:21.341Z,98718.66
2022-09-05T18:24:24.654Z,98723.66
2022-09-05T18:28:04.441Z,98720.41
2022-09-05T18:31:27.193Z,98727.00
2022-09-05T18:35:06.804Z,98732.78
2022-09-05T18:38:50.037Z,98731.31
2022-09-05T18:41:48.537Z,98730.78
2022-09-05T18:44:53.743Z,98733.66
2022-09-05T18:48:03.269Z,98737.66
2022-09-05T18:51:13.296Z,98744.28
2022-09-05T18:54:21.945Z,98738.28
2022-09-05T18:57:29.245Z,98745.84
2022-09-05T19:00:44.501Z,98746.16
2022-09-05T19:03:52.336Z,98748.59
2022-09-05T19:06:54.749Z,98752.59
2022-09-05T19:10:33.871Z,98756.31
2022-09-05T19:13:31.801Z,98759.50
2022-09-05T19:16:43.356Z,98756.19
2022-09-05T19:37:08.192Z,98755.94
2022-09-05T19:42:54.215Z,98748.94
2022-09-05T19:47:30.004Z,98751.38
2022-09-05T19:47:41.042Z,98749.34
2022-09-05T19:49:55.181Z,98753.22
2022-09-05T19:53:05.449Z,98752.94
2022-09-05T19:56:07.456Z,98751.47
2022-09-05T19:59:19.396Z,98746.63
2022-09-05T20:02:24.806Z,98744.44
2022-09-05T20:05:26.751Z,98756.00
2022-09-05T20:21:41.615Z,98755.00
2022-09-05T20:27:53.832Z,98747.69
2022-09-05T20:44:00.285Z,98743.75
2022-09-05T20:52:38.071Z,98742.31
2022-09-05T20:54:16.976Z,98729.03
2022-09-05T20:54:22.377Z,98738.41
2022-09-05T20:57:16.151Z,98742.00
2022-09-05T21:13:21.871Z,98755.41
2022-09-05T21:16:28.046Z,98751.81
2022-09-05T21:19:30.725Z,98750.97
2022-09-05T21:22:39.393Z,98750.34
2022-09-05T21:25:48.615Z,98748.78
2022-09-05T21:29:04.102Z,98743.50
2022-09-05T21:32:11.065Z,98747.78
2022-09-05T21:35:33.762Z,98744.06
2022-09-05T21:38:40.676Z,98739.63
2022-09-05T21:41:42.535Z,98745.06
2022-09-05T21:47:37.457Z,98737.22
2022-09-05T21:48:15.484Z,98733.34
2022-09-05T21:51:17.260Z,98729.78
2022-09-05T21:59:16.214Z,98738.94
2022-09-05T21:59:29.036Z,98742.03
2022-09-05T22:01:08.559Z,98730.31
2022-09-05T22:04:10.167Z,98722.06
2022-09-05T22:07:24.283Z,98726.22
2022-09-05T22:10:51.688Z,98719.06
2022-09-05T22:13:59.966Z,98728.06
2022-09-05T22:17:07.640Z,98735.63
2022-09-05T22:20:10.642Z,98732.91
2022-09-05T22:23:13.020Z,98734.63
2022-09-05T22:26:15.554Z,98730.22
2022-09-05T22:29:17.580Z,98725.75
2022-09-05T22:32:34.041Z,98718.75
2022-09-05T22:35:40.385Z,98712.31
2022-09-05T22:38:43.523Z,98716.03
2022-09-05T22:41:45.357Z,98708.31
2022-09-05T22:44:48.262Z,98703.41
2022-09-05T22:47:51.768Z,98692.56
2022-09-05T22:50:53.455Z,98689.13
2022-09-05T22:53:55.011Z,98691.13
2022-09-05T22:56:56.492Z,98684.13
2022-09-05T22:59:58.345Z,98680.66
2022-09-05T23:03:02.166Z,98686.38
2022-09-05T23:06:04.208Z,98686.66
2022-09-05T23:09:05.733Z,98679.50
2022-09-05T23:12:07.377Z,98674.22
2022-09-05T23:15:09.980Z,98672.38
2022-09-05T23:18:12.979Z,98666.19
2022-09-05T23:21:15.078Z,98670.03
2022-09-05T23:24:16.577Z,98666.47
2022-09-05T23:27:18.286Z,98658.47
2022-09-05T23:30:21.734Z,98667.03
2022-09-05T23:33:24.671Z,98661.72
2022-09-05T23:36:26.307Z,98660.28
2022-09-05T23:39:27.775Z,98663.84
2022-09-05T23:42:31.652Z,98662.84
2022-09-05T23:45:33.679Z,98662.84
2022-09-05T23:48:36.952Z,98676.41
2022-09-05T23:51:38.502Z,98671.69
2022-09-05T23:54:40.048Z,98668.28
2022-09-05T23:57:41.918Z,98667.56
